createdAt,value
2019-02-17T00:00:45.062Z,5.40
2019-02-17T00:03:11.289Z,5.50
2019-02-17T00:05:37.500Z,5.40
2019-02-17T00:08:03.836Z,5.40
2019-02-17T00:10:30.030Z,5.40
2019-02-17T00:12:56.234Z,5.30
2019-02-17T00:15:22.486Z,5.30
2019-02-17T00:17:48.883Z,5.30
2019-02-17T00:20:15.265Z,5.40
2019-02-17T00:22:41.498Z,5.40
2019-02-17T00:25:07.815Z,5.40
2019-02-17T00:27:34.022Z,5.40
2019-02-17T00:30:00.320Z,5.30
2019-02-17T00:32:26.579Z,5.40
2019-02-17T00:34:52.777Z,5.30
2019-02-17T00:37:19.010Z,5.40
2019-02-17T00:39:45.221Z,5.40
2019-02-17T00:42:11.526Z,5.30
2019-02-17T00:44:37.759Z,5.30
2019-02-17T00:47:03.962Z,5.30
2019-02-17T00:49:30.171Z,5.40
2019-02-17T00:51:56.605Z,5.30
2019-02-17T00:54:22.814Z,5.30
2019-02-17T00:56:49.027Z,5.30
2019-02-17T00:59:15.262Z,5.40
2019-02-17T01:01:41.495Z,5.40
2019-02-17T01:04:07.806Z,5.40
2019-02-17T01:06:34.034Z,5.30
2019-02-17T01:09:00.238Z,5.20
2019-02-17T01:11:26.458Z,5.10
2019-02-17T01:13:52.682Z,5.20
2019-02-17T01:16:18.882Z,5.10
2019-02-17T01:18:45.094Z,5.20
2019-02-17T01:21:11.324Z,5.20
2019-02-17T01:23:37.659Z,5.30
2019-02-17T01:26:04.024Z,5.30
2019-02-17T01:28:30.247Z,5.30
2019-02-17T01:30:56.790Z,5.20
2019-02-17T01:33:23.027Z,5.20
2019-02-17T01:35:49.231Z,5.20
2019-02-17T01:38:15.785Z,5.10
2019-02-17T01:40:42.018Z,5.20
2019-02-17T01:43:08.222Z,5.20
2019-02-17T01:45:34.534Z,5.20
2019-02-17T01:48:00.766Z,5.10
2019-02-17T01:50:27.254Z,5.10
2019-02-17T01:52:53.589Z,5.10
2019-02-17T01:55:19.931Z,5.10
2019-02-17T01:57:46.139Z,5.10
2019-02-17T02:00:14.146Z,5.00
2019-02-17T02:02:40.395Z,4.90
2019-02-17T02:05:06.827Z,4.90
2019-02-17T02:07:33.163Z,4.90
2019-02-17T02:09:59.389Z,4.80
2019-02-17T02:12:25.686Z,4.80
2019-02-17T02:14:51.919Z,4.70
2019-02-17T02:17:18.119Z,4.70
2019-02-17T02:19:44.331Z,4.60
2019-02-17T02:22:10.579Z,4.50
2019-02-17T02:24:36.797Z,4.50
2019-02-17T02:27:03.098Z,4.50
2019-02-17T02:29:29.426Z,4.50
2019-02-17T02:31:55.700Z,4.60
2019-02-17T02:34:21.999Z,4.70
2019-02-17T02:36:48.226Z,4.60
2019-02-17T02:39:14.454Z,4.60
2019-02-17T02:41:40.663Z,4.50
2019-02-17T02:44:06.898Z,4.50
2019-02-17T02:46:33.405Z,4.60
2019-02-17T02:48:59.871Z,4.60
2019-02-17T02:51:26.389Z,4.80
2019-02-17T02:53:52.694Z,4.80
2019-02-17T02:56:18.904Z,4.80
2019-02-17T02:58:45.141Z,4.80
2019-02-17T03:01:12.465Z,4.70
2019-02-17T03:03:38.707Z,4.70
2019-02-17T03:06:06.854Z,4.70
2019-02-17T03:08:33.053Z,4.70
2019-02-17T03:10:59.276Z,4.60
2019-02-17T03:13:25.603Z,4.60
2019-02-17T03:15:51.802Z,4.50
2019-02-17T03:18:18.007Z,4.60
2019-02-17T03:20:44.749Z,4.60
2019-02-17T03:23:10.947Z,4.60
2019-02-17T03:25:37.260Z,4.50
2019-02-17T03:28:03.506Z,4.20
2019-02-17T03:30:29.716Z,4.20
2019-02-17T03:32:55.919Z,4.10
2019-02-17T03:35:22.142Z,4.10
2019-02-17T03:37:48.346Z,4.10
2019-02-17T03:40:14.850Z,4.20
2019-02-17T03:42:41.086Z,4.20
2019-02-17T03:45:08.841Z,4.20
2019-02-17T03:47:35.047Z,4.10
2019-02-17T03:50:01.600Z,4.20
2019-02-17T03:52:29.711Z,4.20
2019-02-17T03:54:55.922Z,4.20
2019-02-17T03:57:22.152Z,4.30
2019-02-17T03:59:48.559Z,4.30
2019-02-17T04:02:14.953Z,4.30
2019-02-17T04:04:41.207Z,4.30
2019-02-17T04:07:07.420Z,4.30
2019-02-17T04:09:33.634Z,4.40
2019-02-17T04:12:00.121Z,4.30
2019-02-17T04:14:26.326Z,4.30
2019-02-17T04:16:52.530Z,4.30
2019-02-17T04:19:18.790Z,4.30
2019-02-17T04:21:45.003Z,4.30
2019-02-17T04:24:11.207Z,4.30
2019-02-17T04:26:37.438Z,4.30
2019-02-17T04:29:03.641Z,4.30
2019-02-17T04:31:30.146Z,4.30
2019-02-17T04:33:56.382Z,4.30
2019-02-17T04:36:22.591Z,4.30
2019-02-17T04:38:48.796Z,4.30
2019-02-17T04:41:15.131Z,4.30
2019-02-17T04:43:41.327Z,4.20
2019-02-17T04:46:07.534Z,4.20
2019-02-17T04:48:33.858Z,4.10
2019-02-17T04:51:00.171Z,4.10
2019-02-17T04:53:26.370Z,4.00
2019-02-17T04:55:52.611Z,4.00
2019-02-17T04:58:18.819Z,4.00
2019-02-17T05:00:45.021Z,4.00
2019-02-17T05:03:11.351Z,4.00
2019-02-17T05:05:37.587Z,4.00
2019-02-17T05:08:03.794Z,4.10
2019-02-17T05:10:30.027Z,4.10
2019-02-17T05:12:56.227Z,4.10
2019-02-17T05:15:22.524Z,4.10
2019-02-17T05:17:48.759Z,4.10
2019-02-17T05:20:14.962Z,4.10
2019-02-17T05:22:41.160Z,4.10
2019-02-17T05:25:07.492Z,4.10
2019-02-17T05:27:33.700Z,4.00
2019-02-17T05:29:59.948Z,4.00
2019-02-17T05:32:26.166Z,4.00
2019-02-17T05:34:52.474Z,4.00
2019-02-17T05:37:18.701Z,4.00
2019-02-17T05:39:44.912Z,3.90
2019-02-17T05:42:11.144Z,3.90
2019-02-17T05:44:37.473Z,3.80
2019-02-17T05:47:03.695Z,3.80
2019-02-17T05:49:29.910Z,3.80
2019-02-17T05:51:56.134Z,3.80
2019-02-17T05:54:22.342Z,3.80
2019-02-17T05:56:48.563Z,3.80
2019-02-17T05:59:14.787Z,3.70
2019-02-17T06:01:40.995Z,3.70
2019-02-17T06:04:07.222Z,3.70
2019-02-17T06:06:33.579Z,3.70
2019-02-17T06:08:59.907Z,3.80
2019-02-17T06:11:26.112Z,3.80
2019-02-17T06:13:52.355Z,3.90
2019-02-17T06:16:18.554Z,4.00
2019-02-17T06:18:44.783Z,4.00
2019-02-17T06:21:10.994Z,4.00
2019-02-17T06:23:37.223Z,4.00
2019-02-17T06:26:03.463Z,4.00
2019-02-17T06:28:29.687Z,4.00
2019-02-17T06:30:55.888Z,4.10
2019-02-17T06:33:22.119Z,4.10
2019-02-17T06:35:48.326Z,4.10
2019-02-17T06:38:14.551Z,4.20
2019-02-17T06:40:40.849Z,4.20
2019-02-17T06:43:07.069Z,4.20
2019-02-17T06:45:33.275Z,4.20
2019-02-17T06:47:59.480Z,4.20
2019-02-17T06:50:25.706Z,4.10
2019-02-17T06:52:51.926Z,4.10
2019-02-17T06:55:26.162Z,4.10
2019-02-17T06:57:52.400Z,4.10
2019-02-17T07:00:20.562Z,4.10
2019-02-17T07:02:46.786Z,4.10
2019-02-17T07:05:17.655Z,4.10
2019-02-17T07:07:44.075Z,4.00
2019-02-17T07:10:10.306Z,4.00
2019-02-17T07:12:36.515Z,4.10
2019-02-17T07:15:04.238Z,4.00
2019-02-17T07:17:30.478Z,4.10
2019-02-17T07:19:56.785Z,4.10
2019-02-17T07:22:23.014Z,4.20
2019-02-17T07:24:49.238Z,4.20
2019-02-17T07:27:15.447Z,4.30
2019-02-17T07:29:41.958Z,4.40
2019-02-17T07:32:08.276Z,4.50
2019-02-17T07:34:34.503Z,4.50
2019-02-17T07:37:00.710Z,4.50
2019-02-17T07:39:26.918Z,4.60
2019-02-17T07:41:53.135Z,4.80
2019-02-17T07:44:19.346Z,4.90
2019-02-17T07:46:45.734Z,5.00
2019-02-17T07:49:11.945Z,5.10
2019-02-17T07:51:38.185Z,5.20
2019-02-17T07:54:04.407Z,5.40
2019-02-17T07:56:30.630Z,5.40
2019-02-17T07:58:56.960Z,5.50
2019-02-17T08:01:23.195Z,5.60
2019-02-17T08:03:49.490Z,5.70
2019-02-17T08:06:15.834Z,5.90
2019-02-17T08:08:42.043Z,6.00
2019-02-17T08:11:08.278Z,6.20
2019-02-17T08:13:34.570Z,6.30
2019-02-17T08:16:01.082Z,6.30
2019-02-17T08:18:27.471Z,6.40
2019-02-17T08:20:53.802Z,6.50
2019-02-17T08:23:20.066Z,6.60
2019-02-17T08:25:46.383Z,6.60
2019-02-17T08:28:12.889Z,6.70
2019-02-17T08:30:39.227Z,6.80
2019-02-17T08:33:05.498Z,6.90
2019-02-17T08:35:31.775Z,7.00
2019-02-17T08:37:58.094Z,7.10
2019-02-17T08:40:24.306Z,7.20
2019-02-17T08:42:50.686Z,7.30
2019-02-17T08:45:16.891Z,7.50
2019-02-17T08:47:43.108Z,7.60
2019-02-17T08:50:10.110Z,7.70
2019-02-17T08:52:36.425Z,7.80
2019-02-17T08:55:04.930Z,7.80
2019-02-17T08:57:31.172Z,8.00
2019-02-17T08:59:57.374Z,8.20
2019-02-17T09:02:23.623Z,8.30
2019-02-17T09:04:49.922Z,8.50
2019-02-17T09:07:16.145Z,8.60
2019-02-17T09:09:42.378Z,8.60
2019-02-17T09:12:08.591Z,8.60
2019-02-17T09:14:34.811Z,8.60
2019-02-17T09:17:01.006Z,8.70
2019-02-17T09:19:27.234Z,8.80
2019-02-17T09:21:53.439Z,8.90
2019-02-17T09:24:19.683Z,9.00
2019-02-17T09:26:45.887Z,9.10
2019-02-17T09:29:12.115Z,9.20
2019-02-17T09:31:38.329Z,9.40
2019-02-17T09:34:04.551Z,9.50
2019-02-17T09:36:30.761Z,9.60
2019-02-17T09:38:56.986Z,9.80
2019-02-17T09:41:23.195Z,9.80
2019-02-17T09:43:49.502Z,9.90
2019-02-17T09:46:15.813Z,9.80
2019-02-17T09:48:42.023Z,9.80
2019-02-17T09:51:09.508Z,9.90
2019-02-17T09:53:35.719Z,10.00
2019-02-17T09:56:01.930Z,10.00
2019-02-17T09:58:28.162Z,10.10
2019-02-17T10:00:54.374Z,10.20
2019-02-17T10:03:20.586Z,10.30
2019-02-17T10:05:46.814Z,10.40
2019-02-17T10:08:13.018Z,10.60
2019-02-17T10:10:39.228Z,10.60
2019-02-17T10:13:05.468Z,10.60
2019-02-17T10:15:31.710Z,10.80
2019-02-17T10:17:58.023Z,10.80
2019-02-17T10:20:24.640Z,10.90
2019-02-17T10:22:51.792Z,11.00
2019-02-17T10:25:18.008Z,11.10
2019-02-17T10:27:44.384Z,11.10
2019-02-17T10:30:13.225Z,11.30
2019-02-17T10:32:39.534Z,11.40
2019-02-17T10:35:05.787Z,11.50
2019-02-17T10:37:32.011Z,11.60
2019-02-17T10:39:58.224Z,11.60
2019-02-17T10:42:24.727Z,11.70
2019-02-17T10:44:51.244Z,11.80
2019-02-17T10:47:17.470Z,12.00
2019-02-17T10:49:43.674Z,12.10
2019-02-17T10:52:09.911Z,12.10
2019-02-17T10:54:36.208Z,12.20
2019-02-17T10:57:02.619Z,12.30
2019-02-17T10:59:28.981Z,12.30
2019-02-17T11:01:55.206Z,12.50
2019-02-17T11:04:21.533Z,12.60
2019-02-17T11:06:48.055Z,12.70
2019-02-17T11:09:20.057Z,12.80
2019-02-17T11:11:46.569Z,12.80
2019-02-17T11:14:12.775Z,13.00
2019-02-17T11:16:39.010Z,13.10
2019-02-17T11:19:05.227Z,13.20
2019-02-17T11:21:31.438Z,13.40
2019-02-17T11:23:57.771Z,13.40
2019-02-17T11:26:24.330Z,13.50
2019-02-17T11:28:50.553Z,13.60
2019-02-17T11:31:16.759Z,13.70
2019-02-17T11:33:43.300Z,13.70
2019-02-17T11:36:09.671Z,13.90
2019-02-17T11:38:35.994Z,14.00
2019-02-17T11:41:02.311Z,14.10
2019-02-17T11:43:28.635Z,14.20
2019-02-17T11:45:55.037Z,14.30
2019-02-17T11:48:21.266Z,14.30
2019-02-17T11:50:47.695Z,14.40
2019-02-17T11:53:14.018Z,14.50
2019-02-17T11:55:40.350Z,14.60
2019-02-17T11:58:06.554Z,14.80
2019-02-17T12:00:34.587Z,14.90
2019-02-17T12:03:07.538Z,15.00
2019-02-17T12:05:31.950Z,15.00
2019-02-17T12:07:58.222Z,15.10
2019-02-17T12:10:24.460Z,15.20
2019-02-17T12:12:50.675Z,15.30
2019-02-17T12:15:17.026Z,15.30
2019-02-17T12:17:44.134Z,15.40
2019-02-17T12:20:30.147Z,15.40
2019-02-17T12:23:01.275Z,15.50
2019-02-17T12:25:29.498Z,15.70
2019-02-17T12:27:57.729Z,15.80
2019-02-17T12:30:23.955Z,15.90
2019-02-17T12:32:50.267Z,16.20
2019-02-17T12:35:16.543Z,16.40
2019-02-17T12:37:42.746Z,16.40
2019-02-17T12:40:09.603Z,16.60
2019-02-17T12:42:35.802Z,16.60
2019-02-17T12:45:03.255Z,16.60
2019-02-17T12:47:29.483Z,16.60
2019-02-17T12:49:55.991Z,16.70
2019-02-17T12:52:22.208Z,16.80
2019-02-17T12:54:48.414Z,17.00
2019-02-17T12:57:19.242Z,17.00
2019-02-17T12:59:45.442Z,17.30
2019-02-17T13:02:11.698Z,17.20
2019-02-17T13:04:38.059Z,17.30
2019-02-17T13:07:04.278Z,17.40
2019-02-17T13:09:30.488Z,17.50
2019-02-17T13:11:56.880Z,17.60
2019-02-17T13:14:23.171Z,17.80
2019-02-17T13:16:49.390Z,18.00
2019-02-17T13:19:15.612Z,18.20
2019-02-17T13:21:41.853Z,18.20
2019-02-17T13:24:08.058Z,18.20
2019-02-17T13:26:34.278Z,18.30
2019-02-17T13:29:00.478Z,18.30
2019-02-17T13:31:26.711Z,18.50
2019-02-17T13:33:52.923Z,18.60
2019-02-17T13:36:19.182Z,18.70
2019-02-17T13:38:45.402Z,18.80
2019-02-17T13:41:11.613Z,18.90
2019-02-17T13:43:37.847Z,19.00
2019-02-17T13:46:04.090Z,19.00
2019-02-17T13:48:30.314Z,19.20
2019-02-17T13:50:56.557Z,19.10
2019-02-17T13:53:22.785Z,19.10
2019-02-17T13:55:48.991Z,19.20
2019-02-17T13:58:15.223Z,19.30
2019-02-17T14:00:41.435Z,19.30
2019-02-17T14:03:07.659Z,19.40
2019-02-17T14:05:33.862Z,19.40
2019-02-17T14:08:00.234Z,19.40
2019-02-17T14:10:26.442Z,19.60
2019-02-17T14:12:52.647Z,19.70
2019-02-17T14:15:19.562Z,19.70
2019-02-17T14:17:45.783Z,19.90
2019-02-17T14:20:13.386Z,19.90
2019-02-17T14:22:39.719Z,19.90
2019-02-17T14:25:08.053Z,19.90
2019-02-17T14:27:34.470Z,20.00
2019-02-17T14:30:01.133Z,20.10
2019-02-17T14:32:27.347Z,20.20
2019-02-17T14:34:53.575Z,20.50
2019-02-17T14:37:19.788Z,20.60
2019-02-17T14:39:45.990Z,20.60
2019-02-17T14:42:12.269Z,20.80
2019-02-17T14:44:38.474Z,20.90
2019-02-17T14:47:04.710Z,21.10
2019-02-17T14:49:30.914Z,21.50
2019-02-17T14:51:57.156Z,22.30
2019-02-17T14:54:23.482Z,23.50
2019-02-17T14:56:49.725Z,24.90
2019-02-17T14:59:15.952Z,25.80
2019-02-17T15:01:42.281Z,27.00
2019-02-17T15:04:09.156Z,27.60
2019-02-17T15:06:35.570Z,28.00
2019-02-17T15:31:03.783Z,28.10
2019-02-17T15:33:30.301Z,27.90
2019-02-17T15:35:56.526Z,28.20
2019-02-17T15:38:22.730Z,28.10
2019-02-17T15:40:49.197Z,27.80
2019-02-17T15:43:15.424Z,28.00
2019-02-17T15:45:41.905Z,28.30
2019-02-17T15:48:08.233Z,28.10
2019-02-17T15:50:34.446Z,27.50
2019-02-17T15:53:00.677Z,26.70
2019-02-17T15:55:26.886Z,26.00
2019-02-17T15:57:53.116Z,26.10
2019-02-17T16:00:19.374Z,26.00
2019-02-17T16:02:45.705Z,25.90
2019-02-17T16:05:12.019Z,25.50
2019-02-17T16:07:38.228Z,24.60
2019-02-17T16:10:07.654Z,22.60
2019-02-17T16:12:33.865Z,21.60
2019-02-17T16:15:00.232Z,20.30
2019-02-17T16:17:26.547Z,19.30
2019-02-17T16:19:52.782Z,18.50
2019-02-17T16:22:18.986Z,18.00
2019-02-17T16:24:45.326Z,17.40
2019-02-17T16:27:11.764Z,16.90
2019-02-17T16:29:38.000Z,16.30
2019-02-17T16:32:04.303Z,15.90
2019-02-17T16:34:38.130Z,15.60
2019-02-17T16:36:58.646Z,15.30
2019-02-17T16:39:24.879Z,15.10
2019-02-17T16:41:51.099Z,15.00
2019-02-17T16:44:17.328Z,14.70
2019-02-17T16:46:43.543Z,14.70
2019-02-17T16:49:09.770Z,14.60
2019-02-17T16:54:02.662Z,14.30
2019-02-17T16:56:28.978Z,14.10
2019-02-17T16:58:55.208Z,14.00
2019-02-17T17:01:21.418Z,13.90
2019-02-17T17:03:47.674Z,13.90
2019-02-17T17:06:13.882Z,13.80
2019-02-17T17:08:40.187Z,13.70
2019-02-17T17:11:06.424Z,13.60
2019-02-17T17:13:32.639Z,13.50
2019-02-17T17:15:58.882Z,13.40
2019-02-17T17:18:25.090Z,13.40
2019-02-17T17:20:51.330Z,13.40
2019-02-17T17:23:17.539Z,13.30
2019-02-17T17:25:43.851Z,13.30
2019-02-17T17:28:10.109Z,13.20
2019-02-17T17:30:36.321Z,13.10
2019-02-17T17:33:02.541Z,13.00
2019-02-17T17:35:28.755Z,12.90
2019-02-17T17:37:55.074Z,12.90
2019-02-17T17:40:21.290Z,12.80
2019-02-17T17:42:47.514Z,12.70
2019-02-17T17:45:15.427Z,12.50
2019-02-17T17:47:41.749Z,12.40
2019-02-17T17:50:10.258Z,12.20
2019-02-17T17:52:36.487Z,12.10
2019-02-17T17:55:05.247Z,12.00
2019-02-17T17:57:31.487Z,11.80
2019-02-17T17:59:57.698Z,11.70
2019-02-17T18:02:24.033Z,11.60
2019-02-17T18:04:50.241Z,11.50
2019-02-17T18:07:16.482Z,11.50
2019-02-17T18:09:42.963Z,11.50
2019-02-17T18:12:09.211Z,11.40
2019-02-17T18:14:35.434Z,11.40
2019-02-17T18:17:01.663Z,11.30
2019-02-17T18:19:27.902Z,11.30
2019-02-17T18:21:54.114Z,11.30
2019-02-17T18:24:20.362Z,11.10
2019-02-17T18:26:46.574Z,11.10
2019-02-17T18:29:12.802Z,11.10
2019-02-17T18:31:39.106Z,10.90
2019-02-17T18:34:05.332Z,10.90
2019-02-17T18:36:31.538Z,10.90
2019-02-17T18:38:57.790Z,10.80
2019-02-17T18:41:24.003Z,10.80
2019-02-17T18:43:50.202Z,10.70
2019-02-17T18:46:16.429Z,10.70
2019-02-17T18:48:42.627Z,10.70
2019-02-17T18:51:08.859Z,10.70
2019-02-17T18:53:35.054Z,10.60
2019-02-17T18:56:01.284Z,10.60
2019-02-17T18:58:27.595Z,10.50
2019-02-17T19:00:53.824Z,10.40
2019-02-17T19:03:20.026Z,10.40
2019-02-17T19:05:46.254Z,10.30
2019-02-17T19:08:12.594Z,10.20
2019-02-17T19:10:38.826Z,10.10
2019-02-17T19:13:05.043Z,10.00
2019-02-17T19:15:31.262Z,9.90
2019-02-17T19:17:57.471Z,9.90
2019-02-17T19:20:35.010Z,9.80
2019-02-17T19:23:01.210Z,9.70
2019-02-17T19:25:27.446Z,9.60
2019-02-17T19:27:53.657Z,9.60
2019-02-17T19:30:19.964Z,9.60
2019-02-17T19:32:48.186Z,9.60
2019-02-17T19:35:15.003Z,9.60
2019-02-17T19:37:46.026Z,9.60
2019-02-17T19:40:13.153Z,9.50
2019-02-17T19:42:39.412Z,9.30
2019-02-17T19:45:15.794Z,9.30
2019-02-17T19:47:42.138Z,9.20
2019-02-17T19:50:10.574Z,9.10
2019-02-17T19:52:36.809Z,9.10
2019-02-17T19:55:03.614Z,9.00
2019-02-17T19:57:29.931Z,9.00
2019-02-17T19:59:56.146Z,8.90
2019-02-17T20:02:24.278Z,8.80
2019-02-17T20:04:55.183Z,8.70
2019-02-17T20:07:21.427Z,8.70
2019-02-17T20:09:47.642Z,8.80
2019-02-17T20:12:13.897Z,8.70
2019-02-17T20:14:40.195Z,8.80
2019-02-17T20:17:06.402Z,8.80
2019-02-17T20:19:32.660Z,8.80
2019-02-17T20:21:58.938Z,8.60
2019-02-17T20:24:25.161Z,8.60
2019-02-17T20:26:51.370Z,8.50
2019-02-17T20:29:17.602Z,8.40
2019-02-17T20:31:44.144Z,8.40
2019-02-17T20:34:10.383Z,8.30
2019-02-17T20:36:36.590Z,8.20
2019-02-17T20:39:04.014Z,8.20
2019-02-17T20:41:30.223Z,8.10
2019-02-17T20:43:56.450Z,8.20
2019-02-17T20:46:22.660Z,8.20
2019-02-17T20:48:48.886Z,8.20
2019-02-17T20:51:15.098Z,8.20
2019-02-17T20:53:41.327Z,8.10
2019-02-17T20:56:07.541Z,8.00
2019-02-17T20:58:33.762Z,8.00
2019-02-17T21:01:00.057Z,7.90
2019-02-17T21:03:26.295Z,7.90
2019-02-17T21:05:52.499Z,7.90
2019-02-17T21:08:18.842Z,7.90
2019-02-17T21:10:45.059Z,7.80
2019-02-17T21:13:11.287Z,7.80
2019-02-17T21:15:49.513Z,7.70
2019-02-17T21:18:15.747Z,7.80
2019-02-17T21:20:41.954Z,7.80
2019-02-17T21:23:08.183Z,7.80
2019-02-17T21:25:34.393Z,7.80
2019-02-17T21:28:21.530Z,7.70
2019-02-17T21:30:47.746Z,7.70
2019-02-17T21:33:13.946Z,7.70
2019-02-17T21:35:40.175Z,7.70
2019-02-17T21:38:06.374Z,7.60
2019-02-17T21:40:32.907Z,7.50
2019-02-17T21:42:59.118Z,7.40
2019-02-17T21:45:25.434Z,7.40
2019-02-17T21:47:51.639Z,7.40
2019-02-17T21:50:19.563Z,7.40
2019-02-17T21:52:45.871Z,7.40
2019-02-17T21:55:13.500Z,7.40
2019-02-17T21:57:39.815Z,7.50
2019-02-17T22:00:16.207Z,7.50
2019-02-17T22:02:42.515Z,7.40
2019-02-17T22:05:09.050Z,7.40
2019-02-17T22:07:35.295Z,7.40
2019-02-17T22:10:01.733Z,7.30
2019-02-17T22:12:28.022Z,7.30
2019-02-17T22:14:54.230Z,7.20
2019-02-17T22:17:20.459Z,7.10
2019-02-17T22:19:46.658Z,7.00
2019-02-17T22:22:12.891Z,7.00
2019-02-17T22:24:39.090Z,7.10
2019-02-17T22:27:05.319Z,6.90
2019-02-17T22:29:31.531Z,6.90
2019-02-17T22:31:57.751Z,6.80
2019-02-17T22:34:24.127Z,6.70
2019-02-17T22:36:50.353Z,6.70
2019-02-17T22:39:16.549Z,6.60
2019-02-17T22:41:42.778Z,6.70
2019-02-17T22:44:08.991Z,6.60
2019-02-17T22:46:35.322Z,6.50
2019-02-17T22:49:01.538Z,6.40
2019-02-17T22:51:27.758Z,6.40
2019-02-17T22:53:53.971Z,6.30
2019-02-17T22:56:20.369Z,6.40
2019-02-17T22:58:46.722Z,6.40
2019-02-17T23:01:16.338Z,6.50
2019-02-17T23:03:42.582Z,6.50
2019-02-17T23:06:08.915Z,6.40
2019-02-17T23:08:35.133Z,6.50
2019-02-17T23:11:02.277Z,6.40
2019-02-17T23:13:28.782Z,6.50
2019-02-17T23:15:54.994Z,6.40
2019-02-17T23:18:21.219Z,6.40
2019-02-17T23:20:47.426Z,6.30
2019-02-17T23:23:13.665Z,6.30
2019-02-17T23:25:39.931Z,6.10
2019-02-17T23:28:06.446Z,6.20
2019-02-17T23:30:32.650Z,6.20
2019-02-17T23:32:58.869Z,6.20
2019-02-17T23:35:25.191Z,6.20
2019-02-17T23:37:51.595Z,6.30
2019-02-17T23:40:17.922Z,6.20
2019-02-17T23:42:44.138Z,6.30
2019-02-17T23:45:11.863Z,6.40
2019-02-17T23:47:38.167Z,6.40
2019-02-17T23:50:06.807Z,6.40
2019-02-17T23:52:33.006Z,6.60
2019-02-17T23:54:59.226Z,6.70
2019-02-17T23:57:25.603Z,6.80
2019-02-17T23:59:51.828Z,6.80
